createdAt,value
2018-02-14T00:00:47.294Z,18.50
2018-02-14T00:03:14.995Z,18.50
2018-02-14T00:05:43.352Z,16.67
2018-02-14T00:08:10.877Z,17.10
2018-02-14T00:10:38.426Z,17.10
2018-02-14T00:13:05.968Z,17.42
2018-02-14T00:15:33.491Z,17.47
2018-02-14T00:18:01.031Z,16.73
2018-02-14T00:20:28.543Z,16.30
2018-02-14T00:22:56.071Z,17.25
2018-02-14T00:25:24.355Z,17.50
2018-02-14T00:27:51.926Z,17.70
2018-02-14T00:30:19.495Z,17.93
2018-02-14T00:32:47.383Z,18.13
2018-02-14T00:35:15.193Z,17.97
2018-02-14T00:37:43.626Z,16.90
2018-02-14T00:40:11.174Z,16.47
2018-02-14T00:42:38.742Z,16.27
2018-02-14T00:45:06.267Z,16.70
2018-02-14T00:47:33.806Z,16.30
2018-02-14T00:50:01.358Z,15.93
2018-02-14T00:52:28.898Z,17.07
2018-02-14T00:54:56.464Z,17.73
2018-02-14T00:57:24.005Z,17.33
2018-02-14T00:59:51.603Z,16.92
2018-02-14T01:02:19.136Z,16.03
2018-02-14T01:04:46.836Z,15.98
2018-02-14T01:07:14.386Z,16.50
2018-02-14T01:09:42.858Z,16.07
2018-02-14T01:12:10.456Z,17.00
2018-02-14T01:14:37.992Z,17.30
2018-02-14T01:17:05.512Z,17.10
2018-02-14T01:19:36.791Z,16.90
2018-02-14T01:22:04.381Z,18.50
2018-02-14T01:24:31.913Z,15.90
2018-02-14T01:26:59.482Z,16.63
2018-02-14T01:29:27.767Z,17.10
2018-02-14T01:31:55.359Z,17.27
2018-02-14T01:34:22.877Z,16.52
2018-02-14T01:36:50.418Z,19.37
2018-02-14T01:39:17.945Z,16.62
2018-02-14T01:41:45.494Z,16.57
2018-02-14T01:44:13.065Z,16.17
2018-02-14T01:46:40.639Z,16.23
2018-02-14T01:49:08.166Z,17.27
2018-02-14T01:51:35.717Z,17.50
2018-02-14T01:54:04.848Z,17.63
2018-02-14T01:56:32.379Z,16.33
2018-02-14T01:59:00.684Z,17.03
2018-02-14T02:01:28.241Z,16.77
2018-02-14T02:03:55.794Z,16.73
2018-02-14T02:06:23.317Z,16.67
2018-02-14T02:08:50.861Z,17.00
2018-02-14T02:11:18.389Z,16.67
2018-02-14T02:13:45.933Z,17.00
2018-02-14T02:16:14.210Z,17.20
2018-02-14T02:18:41.744Z,17.60
2018-02-14T02:21:09.285Z,16.75
2018-02-14T02:23:36.819Z,15.40
2018-02-14T02:26:04.340Z,16.20
2018-02-14T02:28:32.807Z,18.03
2018-02-14T02:31:01.092Z,16.13
2018-02-14T02:33:28.620Z,18.08
2018-02-14T02:35:56.924Z,17.60
2018-02-14T02:38:24.492Z,16.30
2018-02-14T02:40:52.026Z,17.07
2018-02-14T02:43:19.562Z,17.73
2018-02-14T02:45:47.097Z,18.07
2018-02-14T02:48:14.672Z,16.10
2018-02-14T02:50:42.229Z,16.93
2018-02-14T02:53:10.638Z,18.07
2018-02-14T02:55:38.193Z,17.50
2018-02-14T02:58:05.712Z,17.50
2018-02-14T03:00:33.277Z,16.50
2018-02-14T03:03:00.805Z,16.80
2018-02-14T03:05:28.381Z,17.40
2018-02-14T03:07:55.926Z,16.40
2018-02-14T03:10:23.453Z,18.37
2018-02-14T03:12:50.993Z,17.73
2018-02-14T03:15:18.514Z,16.47
2018-02-14T03:17:46.049Z,18.80
2018-02-14T03:20:14.354Z,18.77
2018-02-14T03:22:41.905Z,19.10
2018-02-14T03:25:09.443Z,18.13
2018-02-14T03:27:37.005Z,16.20
2018-02-14T03:30:04.527Z,18.83
2018-02-14T03:32:32.075Z,18.60
2018-02-14T03:34:59.631Z,18.33
2018-02-14T03:37:27.225Z,17.40
2018-02-14T03:39:54.763Z,18.50
2018-02-14T03:42:23.065Z,20.30
2018-02-14T03:44:50.652Z,18.47
2018-02-14T03:47:18.213Z,18.80
2018-02-14T03:49:45.794Z,19.47
2018-02-14T03:52:13.341Z,18.60
2018-02-14T03:54:41.724Z,18.60
2018-02-14T03:57:09.260Z,17.60
2018-02-14T03:59:36.805Z,18.10
2018-02-14T04:02:04.368Z,19.33
2018-02-14T04:04:31.932Z,18.57
2018-02-14T04:07:00.207Z,19.00
2018-02-14T04:09:28.507Z,17.83
2018-02-14T04:11:56.068Z,20.37
2018-02-14T04:14:23.602Z,20.27
2018-02-14T04:16:51.164Z,19.40
2018-02-14T04:19:18.864Z,21.80
2018-02-14T04:21:46.520Z,18.83
2018-02-14T04:24:14.197Z,19.75
2018-02-14T04:26:41.773Z,19.30
2018-02-14T04:29:09.321Z,20.10
2018-02-14T04:31:37.633Z,18.63
2018-02-14T04:34:05.178Z,20.27
2018-02-14T04:36:32.725Z,19.47
2018-02-14T04:39:00.252Z,19.52
2018-02-14T04:41:27.865Z,18.40
2018-02-14T04:43:55.390Z,18.73
2018-02-14T04:46:22.920Z,18.77
2018-02-14T04:48:50.475Z,20.15
2018-02-14T04:51:18.005Z,20.70
2018-02-14T04:53:46.376Z,19.37
2018-02-14T04:56:13.921Z,19.47
2018-02-14T04:58:41.461Z,21.37
2018-02-14T05:01:09.097Z,18.13
2018-02-14T05:03:36.641Z,19.03
2018-02-14T05:06:04.155Z,20.50
2018-02-14T05:08:31.714Z,20.87
2018-02-14T05:10:59.274Z,19.67
2018-02-14T05:13:26.816Z,21.10
2018-02-14T05:15:54.344Z,20.67
2018-02-14T05:18:21.916Z,19.47
2018-02-14T05:20:49.457Z,18.70
2018-02-14T05:23:17.234Z,21.53
2018-02-14T05:25:44.782Z,19.50
2018-02-14T05:28:12.317Z,19.70
2018-02-14T05:30:39.856Z,19.77
2018-02-14T05:33:07.489Z,20.33
2018-02-14T05:35:35.031Z,20.17
2018-02-14T05:38:02.548Z,20.47
2018-02-14T05:40:30.111Z,20.90
2018-02-14T05:42:57.649Z,19.67
2018-02-14T05:45:25.274Z,20.77
2018-02-14T05:47:52.805Z,20.48
2018-02-14T05:50:21.126Z,20.50
2018-02-14T05:52:48.942Z,22.43
2018-02-14T05:55:16.873Z,20.53
2018-02-14T05:57:44.453Z,19.67
2018-02-14T06:00:11.980Z,22.15
2018-02-14T06:02:39.525Z,20.80
2018-02-14T06:05:07.047Z,23.00
2018-02-14T06:07:35.368Z,23.07
2018-02-14T06:10:02.896Z,20.57
2018-02-14T06:12:30.455Z,23.53
2018-02-14T06:14:57.993Z,23.62
2018-02-14T06:17:25.736Z,23.07
2018-02-14T06:19:53.271Z,23.17
2018-02-14T06:22:20.841Z,22.07
2018-02-14T06:24:48.387Z,24.23
2018-02-14T06:27:16.038Z,21.27
2018-02-14T06:29:44.224Z,23.80
2018-02-14T06:32:12.040Z,23.77
2018-02-14T06:34:39.567Z,23.43
2018-02-14T06:37:07.092Z,25.37
2018-02-14T06:39:34.650Z,23.40
2018-02-14T06:42:02.173Z,22.80
2018-02-14T06:44:29.717Z,22.00
2018-02-14T06:46:57.244Z,23.60
2018-02-14T06:49:25.562Z,25.00
2018-02-14T06:51:53.079Z,25.95
2018-02-14T06:54:20.615Z,23.67
2018-02-14T06:56:48.142Z,23.13
2018-02-14T06:59:15.741Z,25.47
2018-02-14T07:01:43.279Z,25.10
2018-02-14T07:04:10.928Z,24.50
2018-02-14T07:06:38.458Z,25.77
2018-02-14T07:09:06.025Z,25.00
2018-02-14T07:11:33.555Z,24.50
2018-02-14T07:14:01.123Z,24.83
2018-02-14T07:16:29.275Z,24.33
2018-02-14T07:18:56.800Z,25.30
2018-02-14T07:21:24.341Z,25.50
2018-02-14T07:23:51.863Z,24.67
2018-02-14T07:26:19.434Z,25.50
2018-02-14T07:28:46.991Z,25.90
2018-02-14T07:31:14.569Z,25.70
2018-02-14T07:33:42.094Z,24.50
2018-02-14T07:36:09.646Z,24.90
2018-02-14T07:38:37.944Z,25.30
2018-02-14T07:41:05.490Z,24.73
2018-02-14T07:43:33.008Z,24.90
2018-02-14T07:46:01.332Z,26.67
2018-02-14T07:48:28.970Z,26.77
2018-02-14T07:50:57.280Z,26.97
2018-02-14T07:53:25.800Z,25.03
2018-02-14T07:55:53.372Z,26.47
2018-02-14T07:58:20.900Z,27.40
2018-02-14T08:00:49.149Z,25.05
2018-02-14T08:03:16.702Z,23.00
2018-02-14T08:05:44.318Z,25.17
2018-02-14T08:08:11.891Z,24.77
2018-02-14T08:10:39.407Z,26.67
2018-02-14T08:13:06.939Z,26.43
2018-02-14T08:15:34.459Z,24.00
2018-02-14T08:18:02.766Z,24.00
2018-02-14T08:20:30.301Z,25.97
2018-02-14T08:22:57.839Z,26.13
2018-02-14T08:25:25.365Z,24.87
2018-02-14T08:27:53.670Z,27.20
2018-02-14T08:30:21.372Z,27.20
2018-02-14T08:32:50.392Z,27.13
2018-02-14T08:35:17.944Z,27.23
2018-02-14T08:37:45.464Z,28.40
2018-02-14T08:40:12.999Z,27.53
2018-02-14T08:42:40.791Z,28.20
2018-02-14T08:45:08.381Z,28.07
2018-02-14T08:47:36.677Z,26.42
2018-02-14T08:50:04.238Z,27.67
2018-02-14T08:52:31.771Z,29.07
2018-02-14T08:54:59.323Z,27.97
2018-02-14T08:57:26.845Z,25.87
2018-02-14T08:59:54.388Z,27.40
2018-02-14T09:02:21.924Z,25.97
2018-02-14T09:04:50.263Z,25.62
2018-02-14T09:07:19.243Z,26.57
2018-02-14T09:09:46.779Z,26.20
2018-02-14T09:12:15.434Z,24.90
2018-02-14T09:14:42.959Z,24.17
2018-02-14T09:17:10.494Z,25.00
2018-02-14T09:19:38.043Z,23.40
2018-02-14T09:22:05.581Z,24.10
2018-02-14T09:24:33.105Z,24.23
2018-02-14T09:27:00.677Z,24.52
2018-02-14T09:29:28.187Z,23.73
2018-02-14T09:31:55.725Z,23.55
2018-02-14T09:34:23.308Z,23.10
2018-02-14T09:36:51.760Z,23.45
2018-02-14T09:39:19.320Z,21.30
2018-02-14T09:41:46.860Z,24.73
2018-02-14T09:44:14.371Z,23.80
2018-02-14T09:46:42.705Z,23.47
2018-02-14T09:49:10.418Z,22.20
2018-02-14T09:51:37.935Z,23.60
2018-02-14T09:54:05.610Z,22.90
2018-02-14T09:56:33.132Z,24.90
2018-02-14T09:59:00.676Z,22.48
2018-02-14T10:01:28.226Z,23.20
2018-02-14T10:03:55.784Z,24.67
2018-02-14T10:06:23.321Z,23.30
2018-02-14T10:08:50.857Z,25.33
2018-02-14T10:11:18.549Z,21.97
2018-02-14T10:13:46.113Z,23.10
2018-02-14T10:16:14.444Z,24.13
2018-02-14T10:18:41.984Z,23.00
2018-02-14T10:21:09.499Z,24.70
2018-02-14T10:23:37.079Z,22.70
2018-02-14T10:26:04.611Z,23.83
2018-02-14T10:28:32.132Z,22.57
2018-02-14T10:30:59.681Z,22.30
2018-02-14T10:33:27.203Z,24.37
2018-02-14T10:35:54.747Z,22.80
2018-02-14T10:38:22.259Z,22.90
2018-02-14T10:40:49.887Z,22.77
2018-02-14T10:43:17.444Z,22.80
2018-02-14T10:45:44.998Z,24.43
2018-02-14T10:48:13.306Z,23.30
2018-02-14T10:50:40.846Z,22.20
2018-02-14T10:53:08.419Z,24.10
2018-02-14T10:55:36.151Z,24.37
2018-02-14T10:58:03.689Z,25.00
2018-02-14T11:00:37.009Z,26.37
2018-02-14T11:03:10.924Z,24.65
2018-02-14T11:05:39.244Z,22.87
2018-02-14T11:08:06.784Z,21.10
2018-02-14T11:10:34.317Z,22.60
2018-02-14T11:13:01.878Z,20.98
2018-02-14T11:15:29.954Z,21.60
2018-02-14T11:17:57.664Z,21.20
2018-02-14T11:20:25.187Z,21.83
2018-02-14T11:22:52.725Z,20.77
2018-02-14T11:25:21.030Z,21.40
2018-02-14T11:27:48.574Z,20.90
2018-02-14T11:30:16.092Z,20.17
2018-02-14T11:32:43.681Z,24.30
2018-02-14T11:35:11.220Z,21.75
2018-02-14T11:37:39.668Z,23.17
2018-02-14T11:40:07.337Z,21.03
2018-02-14T11:42:34.863Z,23.30
2018-02-14T11:45:02.535Z,23.50
2018-02-14T11:47:30.899Z,22.67
2018-02-14T11:49:58.451Z,22.87
2018-02-14T11:52:25.971Z,23.13
2018-02-14T11:54:54.451Z,22.67
2018-02-14T11:57:21.989Z,20.70
2018-02-14T11:59:49.573Z,21.50
2018-02-14T12:02:17.885Z,24.93
2018-02-14T12:04:45.422Z,21.43
2018-02-14T12:07:12.965Z,19.20
2018-02-14T12:09:40.499Z,19.27
2018-02-14T12:12:08.154Z,17.45
2018-02-14T12:14:35.663Z,19.40
2018-02-14T12:17:03.204Z,18.80
2018-02-14T12:19:31.532Z,17.30
2018-02-14T12:21:59.094Z,18.00
2018-02-14T12:24:26.651Z,19.50
2018-02-14T12:26:55.929Z,18.47
2018-02-14T12:29:24.207Z,16.90
2018-02-14T12:31:51.799Z,19.60
2018-02-14T12:34:19.331Z,16.30
2018-02-14T12:36:46.855Z,18.60
2018-02-14T12:39:14.421Z,17.43
2018-02-14T12:41:41.985Z,17.40
2018-02-14T12:44:09.557Z,16.47
2018-02-14T12:46:37.982Z,17.20
2018-02-14T12:49:05.606Z,18.00
2018-02-14T12:51:33.996Z,19.90
2018-02-14T12:54:01.597Z,17.13
2018-02-14T12:56:29.210Z,17.10
2018-02-14T12:58:56.789Z,12.37
2018-02-14T13:01:24.358Z,12.33
2018-02-14T13:03:51.936Z,13.20
2018-02-14T13:06:19.559Z,15.50
2018-02-14T13:08:47.089Z,15.17
2018-02-14T13:11:14.647Z,12.55
2018-02-14T13:13:42.195Z,13.50
2018-02-14T13:16:09.800Z,13.30
2018-02-14T13:18:37.369Z,14.60
2018-02-14T13:21:04.972Z,14.55
2018-02-14T13:23:33.392Z,17.87
2018-02-14T13:26:01.822Z,18.20
2018-02-14T13:28:29.613Z,16.20
2018-02-14T13:30:57.255Z,15.10
2018-02-14T13:33:25.026Z,16.20
2018-02-14T13:35:53.804Z,17.00
2018-02-14T13:38:21.455Z,17.47
2018-02-14T13:40:49.212Z,17.80
2018-02-14T13:43:18.011Z,16.70
2018-02-14T13:45:45.661Z,18.30
2018-02-14T13:48:14.243Z,16.43
2018-02-14T13:50:41.832Z,17.83
2018-02-14T13:53:09.389Z,19.55
2018-02-14T13:55:37.747Z,19.73
2018-02-14T13:58:05.377Z,20.08
2018-02-14T14:00:33.006Z,15.90
2018-02-14T14:03:00.658Z,15.43
2018-02-14T14:05:28.220Z,18.33
2018-02-14T14:07:55.890Z,16.92
2018-02-14T14:10:24.220Z,17.97
2018-02-14T14:12:52.569Z,17.87
2018-02-14T14:15:20.199Z,17.50
2018-02-14T14:17:47.732Z,15.20
2018-02-14T14:20:16.041Z,13.00
2018-02-14T14:22:43.583Z,13.90
2018-02-14T14:25:11.133Z,12.37
2018-02-14T14:27:38.683Z,13.70
2018-02-14T14:30:06.213Z,13.18
2018-02-14T14:32:33.723Z,12.47
2018-02-14T14:35:01.261Z,14.57
2018-02-14T14:37:28.776Z,13.20
2018-02-14T14:39:56.307Z,13.00
2018-02-14T14:42:23.903Z,12.70
2018-02-14T14:44:51.465Z,13.37
2018-02-14T14:47:19.003Z,12.53
2018-02-14T14:49:46.541Z,11.07
2018-02-14T14:52:14.063Z,13.03
2018-02-14T14:54:42.390Z,12.57
2018-02-14T14:57:10.699Z,12.97
2018-02-14T14:59:38.264Z,11.80
2018-02-14T15:02:05.797Z,13.93
2018-02-14T15:04:33.472Z,14.30
2018-02-14T15:07:01.023Z,15.97
2018-02-14T15:09:28.618Z,14.23
2018-02-14T15:11:56.145Z,15.47
2018-02-14T15:14:23.673Z,15.47
2018-02-14T15:16:51.232Z,16.63
2018-02-14T15:19:19.781Z,16.87
2018-02-14T15:21:48.089Z,18.10
2018-02-14T15:24:15.617Z,17.77
2018-02-14T15:26:43.174Z,19.97
2018-02-14T15:29:10.724Z,18.15
2018-02-14T15:31:38.269Z,19.60
2018-02-14T15:34:05.787Z,19.92
2018-02-14T15:36:34.213Z,20.30
2018-02-14T15:39:01.792Z,18.20
2018-02-14T15:41:30.213Z,19.57
2018-02-14T15:43:57.757Z,16.43
2018-02-14T15:46:25.337Z,18.17
2018-02-14T15:48:52.877Z,21.57
2018-02-14T15:51:20.435Z,18.17
2018-02-14T15:53:48.759Z,16.60
2018-02-14T15:56:16.297Z,17.13
2018-02-14T15:58:43.843Z,16.80
2018-02-14T16:01:11.385Z,17.40
2018-02-14T16:03:39.035Z,17.10
2018-02-14T16:06:06.574Z,17.10
2018-02-14T16:08:34.120Z,15.33
2018-02-14T16:11:01.683Z,16.80
2018-02-14T16:13:29.232Z,16.80
2018-02-14T16:15:56.773Z,18.70
2018-02-14T16:18:24.324Z,20.77
2018-02-14T16:20:51.855Z,23.73
2018-02-14T16:23:19.442Z,24.50
2018-02-14T16:25:47.851Z,26.63
2018-02-14T16:28:15.516Z,27.33
2018-02-14T16:30:43.113Z,27.87
2018-02-14T16:33:10.632Z,28.27
2018-02-14T16:35:38.169Z,26.67
2018-02-14T16:38:05.696Z,26.33
2018-02-14T16:40:33.254Z,26.43
2018-02-14T16:43:01.030Z,26.20
2018-02-14T16:45:29.363Z,26.40
2018-02-14T16:47:56.894Z,26.90
2018-02-14T16:50:24.507Z,24.83
2018-02-14T16:52:52.068Z,25.70
2018-02-14T16:55:19.592Z,27.97
2018-02-14T16:57:47.152Z,28.43
2018-02-14T17:00:14.964Z,28.97
2018-02-14T17:02:43.248Z,30.47
2018-02-14T17:05:10.841Z,30.25
2018-02-14T17:07:38.372Z,31.80
2018-02-14T17:10:05.890Z,34.72
2018-02-14T17:12:33.471Z,32.63
2018-02-14T17:15:01.931Z,32.17
2018-02-14T17:17:29.473Z,32.07
2018-02-14T17:19:57.009Z,32.47
2018-02-14T17:22:24.535Z,33.10
2018-02-14T17:24:52.108Z,33.10
2018-02-14T17:27:19.665Z,36.17
2018-02-14T17:29:47.201Z,33.50
2018-02-14T17:32:14.728Z,35.60
2018-02-14T17:34:42.296Z,34.20
2018-02-14T17:37:09.829Z,34.80
2018-02-14T17:39:37.368Z,35.63
2018-02-14T17:42:04.896Z,35.80
2018-02-14T17:44:32.456Z,40.27
2018-02-14T17:47:00.008Z,38.20
2018-02-14T17:49:27.572Z,38.50
2018-02-14T17:51:55.145Z,39.80
2018-02-14T17:54:22.693Z,38.63
2018-02-14T17:56:50.224Z,36.97
2018-02-14T17:59:17.816Z,40.23
2018-02-14T18:01:45.381Z,39.10
2018-02-14T18:04:12.912Z,38.37
2018-02-14T18:06:40.480Z,38.07
2018-02-14T18:09:08.019Z,40.77
2018-02-14T18:11:35.589Z,41.37
2018-02-14T18:14:04.442Z,40.40
2018-02-14T18:16:32.070Z,42.40
2018-02-14T18:18:59.576Z,40.53
2018-02-14T18:21:27.196Z,42.43
2018-02-14T18:23:55.496Z,40.70
2018-02-14T18:26:23.080Z,41.10
2018-02-14T18:28:51.379Z,41.63
2018-02-14T18:31:19.010Z,44.70
2018-02-14T18:33:47.519Z,48.53
2018-02-14T18:36:15.064Z,41.07
2018-02-14T18:38:42.599Z,42.43
2018-02-14T18:41:10.162Z,41.27
2018-02-14T18:43:37.718Z,41.57
2018-02-14T18:46:05.253Z,46.47
2018-02-14T18:48:32.854Z,40.90
2018-02-14T18:51:01.157Z,42.67
2018-02-14T18:53:28.806Z,40.77
2018-02-14T18:55:57.879Z,36.57
2018-02-14T18:58:25.445Z,37.83
2018-02-14T19:00:52.983Z,37.33
2018-02-14T19:03:20.632Z,37.27
2018-02-14T19:05:48.206Z,38.77
2018-02-14T19:08:16.009Z,36.13
2018-02-14T19:10:44.205Z,37.97
2018-02-14T19:13:11.745Z,39.47
2018-02-14T19:15:39.305Z,38.87
2018-02-14T19:18:06.841Z,39.07
2018-02-14T19:20:34.483Z,41.57
2018-02-14T19:23:02.013Z,42.77
2018-02-14T19:25:29.572Z,40.17
2018-02-14T19:27:57.104Z,41.83
2018-02-14T19:30:24.657Z,36.63
2018-02-14T19:32:52.197Z,40.90
2018-02-14T19:35:19.745Z,40.77
2018-02-14T19:37:47.339Z,39.00
2018-02-14T19:40:15.025Z,42.75
2018-02-14T19:42:42.560Z,41.50
2018-02-14T19:45:10.093Z,41.40
2018-02-14T19:47:37.654Z,42.27
2018-02-14T19:50:05.581Z,43.58
2018-02-14T19:52:33.190Z,44.37
2018-02-14T19:55:00.715Z,40.00
2018-02-14T19:57:28.285Z,41.87
2018-02-14T19:59:56.582Z,43.50
2018-02-14T20:02:24.188Z,41.97
2018-02-14T20:04:52.497Z,47.60
2018-02-14T20:07:20.228Z,44.30
2018-02-14T20:09:47.817Z,42.87
2018-02-14T20:12:15.389Z,44.87
2018-02-14T20:14:43.707Z,46.00
2018-02-14T20:17:12.074Z,43.10
2018-02-14T20:19:39.696Z,46.20
2018-02-14T20:22:07.228Z,44.30
2018-02-14T20:24:34.852Z,46.80
2018-02-14T20:27:03.189Z,47.88
2018-02-14T20:29:32.272Z,45.23
2018-02-14T20:31:59.812Z,46.77
2018-02-14T20:34:27.459Z,43.17
2018-02-14T20:36:55.090Z,45.67
2018-02-14T20:39:22.649Z,46.70
2018-02-14T20:41:50.232Z,44.27
2018-02-14T20:44:18.540Z,44.83
2018-02-14T20:46:46.073Z,45.80
2018-02-14T20:49:13.650Z,42.40
2018-02-14T20:51:41.370Z,44.73
2018-02-14T20:54:08.935Z,45.13
2018-02-14T20:56:36.452Z,41.77
2018-02-14T20:59:03.976Z,42.85
2018-02-14T21:01:32.378Z,46.13
2018-02-14T21:03:59.936Z,43.60
2018-02-14T21:06:27.526Z,42.03
2018-02-14T21:08:55.132Z,47.47
2018-02-14T21:11:22.712Z,44.30
2018-02-14T21:13:51.049Z,43.97
2018-02-14T21:16:18.644Z,47.93
2018-02-14T21:18:46.358Z,45.80
2018-02-14T21:21:14.691Z,45.97
2018-02-14T21:23:42.257Z,46.40
2018-02-14T21:26:09.834Z,43.77
2018-02-14T21:28:37.443Z,39.53
2018-02-14T21:31:05.043Z,39.90
2018-02-14T21:33:32.606Z,39.78
2018-02-14T21:36:00.206Z,42.47
2018-02-14T21:38:27.805Z,39.60
2018-02-14T21:40:55.432Z,44.40
2018-02-14T21:43:23.295Z,40.37
2018-02-14T21:45:50.888Z,39.37
2018-02-14T21:48:19.292Z,39.90
2018-02-14T21:50:46.898Z,39.53
2018-02-14T21:53:15.409Z,37.10
2018-02-14T21:55:42.983Z,39.35
2018-02-14T21:58:10.553Z,40.63
2018-02-14T22:00:38.889Z,39.35
2018-02-14T22:03:06.456Z,41.80
2018-02-14T22:05:34.774Z,41.47
2018-02-14T22:08:02.425Z,43.27
2018-02-14T22:10:30.008Z,40.40
2018-02-14T22:12:58.377Z,39.90
2018-02-14T22:15:26.739Z,36.00
2018-02-14T22:17:55.084Z,38.60
2018-02-14T22:20:22.687Z,38.63
2018-02-14T22:22:50.292Z,40.43
2018-02-14T22:25:18.653Z,38.17
2018-02-14T22:27:46.984Z,35.63
2018-02-14T22:30:14.688Z,37.70
2018-02-14T22:32:42.272Z,39.57
2018-02-14T22:35:10.148Z,39.63
2018-02-14T22:37:37.710Z,38.63
2018-02-14T22:40:06.051Z,40.40
2018-02-14T22:42:33.609Z,37.73
2018-02-14T22:45:01.206Z,39.17
2018-02-14T22:47:28.872Z,39.83
2018-02-14T22:49:56.470Z,40.15
2018-02-14T22:52:24.788Z,38.60
2018-02-14T22:54:52.388Z,36.97
2018-02-14T22:57:19.962Z,34.87
2018-02-14T22:59:47.512Z,35.97
2018-02-14T23:02:15.168Z,32.97
2018-02-14T23:04:42.804Z,33.43
2018-02-14T23:07:10.377Z,32.47
2018-02-14T23:09:37.955Z,33.17
2018-02-14T23:12:05.536Z,31.47
2018-02-14T23:14:33.092Z,31.70
2018-02-14T23:17:00.664Z,31.67
2018-02-14T23:19:28.225Z,32.60
2018-02-14T23:21:56.703Z,30.50
2018-02-14T23:24:24.252Z,32.07
2018-02-14T23:26:51.929Z,28.27
2018-02-14T23:29:19.498Z,29.40
2018-02-14T23:31:47.817Z,29.60
2018-02-14T23:34:15.400Z,31.47
2018-02-14T23:36:42.963Z,31.37
2018-02-14T23:39:11.639Z,31.10
2018-02-14T23:41:39.963Z,33.47
2018-02-14T23:44:07.540Z,32.10
2018-02-14T23:46:35.864Z,32.53
2018-02-14T23:49:03.439Z,30.93
2018-02-14T23:51:30.984Z,31.23
2018-02-14T23:53:58.568Z,33.63
2018-02-14T23:56:26.114Z,31.87
2018-02-14T23:58:53.679Z,34.57
